createdAt,value
2019-03-22T00:01:53.857Z,79503.22
2019-03-22T00:04:23.538Z,79493.11
2019-03-22T00:06:53.623Z,79493.11
2019-03-22T00:09:23.640Z,79506.25
2019-03-22T00:11:53.358Z,79503.22
2019-03-22T00:14:23.460Z,79499.18
2019-03-22T00:16:53.169Z,79485.03
2019-03-22T00:19:23.203Z,79489.07
2019-03-22T00:21:52.952Z,79482.00
2019-03-22T00:24:22.613Z,79499.18
2019-03-22T00:26:52.597Z,79505.24
2019-03-22T00:29:22.623Z,79512.32
2019-03-22T00:31:52.302Z,79487.05
2019-03-22T00:34:22.078Z,79473.91
2019-03-22T00:36:51.785Z,79484.02
2019-03-22T00:39:22.044Z,79490.08
2019-03-22T00:41:53.377Z,79520.41
2019-03-22T00:44:23.828Z,79524.45
2019-03-22T00:46:54.046Z,79517.38
2019-03-22T00:49:23.768Z,79516.36
2019-03-22T00:51:53.495Z,79504.23
2019-03-22T00:54:23.587Z,79517.38
2019-03-22T00:56:55.046Z,79491.09
2019-03-22T00:59:25.138Z,79487.05
2019-03-22T01:01:54.877Z,79499.18
2019-03-22T01:04:24.619Z,79498.17
2019-03-22T01:06:54.317Z,79515.35
2019-03-22T01:09:24.033Z,79523.44
2019-03-22T01:11:53.724Z,79515.35
2019-03-22T01:14:23.527Z,79508.27
2019-03-22T01:16:53.225Z,79504.23
2019-03-22T01:19:23.356Z,79506.25
2019-03-22T01:21:53.639Z,79496.14
2019-03-22T01:24:23.316Z,79490.08
2019-03-22T01:26:53.041Z,79498.17
2019-03-22T01:29:22.739Z,79514.34
2019-03-22T01:31:52.467Z,79517.38
2019-03-22T01:34:22.418Z,79525.46
2019-03-22T01:36:52.090Z,79513.33
2019-03-22T01:39:22.200Z,79495.13
2019-03-22T01:41:51.933Z,79519.39
2019-03-22T01:44:21.646Z,79520.41
2019-03-22T01:46:51.354Z,79524.45
2019-03-22T01:49:21.497Z,79536.58
2019-03-22T01:51:51.248Z,79537.59
2019-03-22T01:54:20.932Z,79529.50
2019-03-22T01:56:51.089Z,79530.52
2019-03-22T01:59:21.202Z,79522.42
2019-03-22T02:01:50.911Z,79516.36
2019-03-22T02:04:20.823Z,79520.41
2019-03-22T02:06:50.538Z,79536.58
2019-03-22T02:09:20.779Z,79517.38
2019-03-22T02:11:50.752Z,79526.47
2019-03-22T02:14:20.506Z,79527.48
2019-03-22T02:16:50.217Z,79521.42
2019-03-22T02:19:19.883Z,79535.56
2019-03-22T02:21:49.953Z,79529.50
2019-03-22T02:24:19.625Z,79526.47
2019-03-22T02:26:49.728Z,79526.47
2019-03-22T02:29:19.409Z,79527.48
2019-03-22T02:31:49.560Z,79519.39
2019-03-22T02:34:19.233Z,79522.42
2019-03-22T02:36:49.496Z,79517.38
2019-03-22T02:39:19.221Z,79510.30
2019-03-22T02:41:48.962Z,79509.29
2019-03-22T02:44:18.731Z,79495.13
2019-03-22T02:46:48.718Z,79517.38
2019-03-22T02:49:18.980Z,79501.20
2019-03-22T02:51:48.962Z,79491.09
2019-03-22T02:54:19.042Z,79503.22
2019-03-22T02:56:50.609Z,79491.09
2019-03-22T02:59:21.097Z,79509.29
2019-03-22T03:01:50.995Z,79502.21
2019-03-22T03:04:20.676Z,79489.07
2019-03-22T03:06:50.443Z,79477.95
2019-03-22T03:09:20.187Z,79496.14
2019-03-22T03:11:50.263Z,79484.02
2019-03-22T03:14:19.990Z,79478.97
2019-03-22T03:16:49.967Z,79482.00
2019-03-22T03:19:20.029Z,79505.24
2019-03-22T03:21:49.729Z,79493.11
2019-03-22T03:24:19.410Z,79495.13
2019-03-22T03:26:49.144Z,79502.21
2019-03-22T03:29:18.873Z,79517.38
2019-03-22T03:31:49.314Z,79509.29
2019-03-22T03:34:18.993Z,79516.36
2019-03-22T03:36:48.790Z,79498.17
2019-03-22T03:39:18.786Z,79491.09
2019-03-22T03:41:48.524Z,79490.08
2019-03-22T03:44:18.287Z,79480.98
2019-03-22T03:46:48.038Z,79463.80
2019-03-22T03:49:17.827Z,79464.81
2019-03-22T03:51:47.858Z,79482.00
2019-03-22T03:54:17.987Z,79491.09
2019-03-22T03:56:48.117Z,79493.11
2019-03-22T03:59:17.841Z,79499.18
2019-03-22T04:01:47.638Z,79505.24
2019-03-22T04:04:17.349Z,79498.17
2019-03-22T04:06:47.063Z,79502.21
2019-03-22T04:09:17.009Z,79494.13
2019-03-22T04:11:47.430Z,79494.13
2019-03-22T04:14:17.155Z,79496.14
2019-03-22T04:16:47.159Z,79488.06
2019-03-22T04:19:17.018Z,79494.13
2019-03-22T04:21:46.682Z,79498.17
2019-03-22T04:24:16.378Z,79513.33
2019-03-22T04:26:46.167Z,79530.52
2019-03-22T04:29:16.242Z,79521.42
2019-03-22T04:31:46.104Z,79522.42
2019-03-22T04:34:16.129Z,79521.42
2019-03-22T04:36:45.852Z,79524.45
2019-03-22T04:39:15.921Z,79516.36
2019-03-22T04:41:45.914Z,79526.47
2019-03-22T04:44:16.041Z,79518.38
2019-03-22T04:46:46.444Z,79510.30
2019-03-22T04:49:16.580Z,79523.44
2019-03-22T04:51:46.897Z,79521.42
2019-03-22T04:54:17.964Z,79511.31
2019-03-22T04:56:48.967Z,79495.13
2019-03-22T04:59:19.658Z,79502.21
2019-03-22T05:01:51.271Z,79519.39
2019-03-22T05:04:21.492Z,79533.55
2019-03-22T05:06:52.930Z,79548.70
2019-03-22T05:09:24.517Z,79554.77
2019-03-22T05:14:31.237Z,79536.58
2019-03-22T05:17:01.061Z,79525.46
2019-03-22T05:19:32.645Z,79527.48
2019-03-22T05:22:03.527Z,79535.56
2019-03-22T05:24:35.072Z,79536.58
2019-03-22T05:27:06.736Z,79515.35
2019-03-22T05:29:39.020Z,79527.48
2019-03-22T05:32:13.926Z,79530.52
2019-03-22T05:34:44.203Z,79532.53
2019-03-22T05:37:13.884Z,79545.67
2019-03-22T05:39:44.378Z,79533.55
2019-03-22T05:42:14.196Z,79544.66
2019-03-22T05:44:44.551Z,79563.87
2019-03-22T05:47:14.543Z,79567.91
2019-03-22T05:49:44.422Z,79537.59
2019-03-22T05:52:14.171Z,79541.63
2019-03-22T05:54:43.943Z,79547.70
2019-03-22T05:57:14.187Z,79558.81
2019-03-22T05:59:44.427Z,79559.83
2019-03-22T06:02:14.516Z,79577.01
2019-03-22T06:04:44.244Z,79577.01
2019-03-22T06:07:14.311Z,79568.92
2019-03-22T06:09:44.024Z,79578.02
2019-03-22T06:12:13.771Z,79558.81
2019-03-22T06:14:44.240Z,79558.81
2019-03-22T06:17:14.246Z,79581.05
2019-03-22T06:19:44.078Z,79576.00
2019-03-22T06:22:14.013Z,79557.80
2019-03-22T06:24:43.683Z,79554.77
2019-03-22T06:27:13.755Z,79563.87
2019-03-22T06:29:53.571Z,79563.87
2019-03-22T06:32:15.603Z,79560.84
2019-03-22T06:34:45.347Z,79566.90
2019-03-22T06:37:15.037Z,79551.73
2019-03-22T06:39:44.850Z,79563.87
2019-03-22T06:42:14.563Z,79547.70
2019-03-22T06:44:44.967Z,79557.80
2019-03-22T06:47:14.691Z,79512.32
2019-03-22T06:49:44.818Z,79532.53
2019-03-22T06:52:15.047Z,79539.61
2019-03-22T06:54:45.134Z,79519.39
2019-03-22T06:57:15.624Z,79500.19
2019-03-22T06:59:45.393Z,79487.05
2019-03-22T07:02:15.832Z,79484.02
2019-03-22T07:04:45.566Z,79491.09
2019-03-22T07:07:15.298Z,79445.61
2019-03-22T07:09:45.337Z,79483.00
2019-03-22T07:12:15.065Z,79466.84
2019-03-22T07:14:45.077Z,79464.81
2019-03-22T07:17:15.094Z,79458.75
2019-03-22T07:19:44.810Z,79433.48
2019-03-22T07:22:14.734Z,79444.59
2019-03-22T07:24:44.442Z,79422.36
2019-03-22T07:27:14.961Z,79407.20
2019-03-22T07:29:46.556Z,79398.10
2019-03-22T07:32:16.365Z,79440.55
2019-03-22T07:34:46.039Z,79419.33
2019-03-22T07:37:15.736Z,79381.93
2019-03-22T07:39:45.686Z,79395.07
2019-03-22T07:42:17.687Z,79362.73
2019-03-22T07:44:47.503Z,79305.12
2019-03-22T07:47:17.244Z,79356.66
2019-03-22T07:49:47.501Z,79372.84
2019-03-22T07:52:17.652Z,79346.55
2019-03-22T07:54:47.942Z,79365.77
2019-03-22T07:57:17.741Z,79321.29
2019-03-22T07:59:47.567Z,79316.23
2019-03-22T08:02:17.697Z,79314.21
2019-03-22T08:04:47.444Z,79313.20
2019-03-22T08:07:17.218Z,79230.33
2019-03-22T08:09:47.215Z,79241.44
2019-03-22T08:12:19.499Z,79225.27
2019-03-22T08:14:48.853Z,79281.88
2019-03-22T08:17:18.823Z,79267.72
2019-03-22T08:19:48.909Z,79239.42
2019-03-22T08:22:19.025Z,79276.81
2019-03-22T08:24:49.184Z,79239.42
2019-03-22T08:27:19.418Z,79216.17
2019-03-22T08:29:49.205Z,79174.73
2019-03-22T08:32:19.257Z,79153.52
2019-03-22T08:34:49.340Z,79183.83
2019-03-22T08:37:19.469Z,79138.35
2019-03-22T08:39:49.353Z,79168.67
2019-03-22T08:42:19.115Z,79163.62
2019-03-22T08:44:49.588Z,79117.13
2019-03-22T08:47:19.292Z,79048.41
2019-03-22T08:49:49.670Z,79036.28
2019-03-22T08:52:19.496Z,79107.02
2019-03-22T08:54:49.233Z,79118.14
2019-03-22T08:57:19.117Z,79147.45
2019-03-22T08:59:48.882Z,79159.58
2019-03-22T09:02:18.953Z,79155.53
2019-03-22T09:04:48.975Z,79132.29
2019-03-22T09:07:18.775Z,79110.05
2019-03-22T09:09:48.656Z,79101.97
2019-03-22T09:12:18.444Z,79093.88
2019-03-22T09:14:48.298Z,79126.22
2019-03-22T09:17:18.133Z,79103.98
2019-03-22T09:19:47.910Z,79120.16
2019-03-22T09:22:19.746Z,79129.25
2019-03-22T09:24:49.872Z,79122.18
2019-03-22T09:27:19.979Z,79112.08
2019-03-22T09:29:49.867Z,79131.28
2019-03-22T09:32:19.661Z,79111.06
2019-03-22T09:34:49.424Z,79094.89
2019-03-22T09:37:19.957Z,79076.70
2019-03-22T09:39:49.736Z,79064.58
2019-03-22T09:42:19.907Z,79057.50
2019-03-22T09:44:49.717Z,79048.41
2019-03-22T09:47:19.485Z,79032.23
2019-03-22T09:49:51.244Z,79007.98
2019-03-22T09:52:21.390Z,79000.91
2019-03-22T09:54:51.613Z,78993.83
2019-03-22T09:57:22.075Z,78983.72
2019-03-22T09:59:52.152Z,78984.73
2019-03-22T10:02:22.060Z,78972.60
2019-03-22T10:04:51.865Z,78963.51
2019-03-22T10:07:21.636Z,78937.23
2019-03-22T10:09:51.486Z,78921.06
2019-03-22T10:12:22.067Z,78896.81
2019-03-22T10:14:52.248Z,78890.75
2019-03-22T10:17:22.425Z,78868.52
2019-03-22T10:19:52.121Z,78851.33
2019-03-22T10:22:22.163Z,78832.13
2019-03-22T10:24:52.199Z,78815.95
2019-03-22T10:27:21.905Z,78814.95
2019-03-22T10:29:51.944Z,78802.82
2019-03-22T10:32:23.823Z,78799.79
2019-03-22T10:34:53.133Z,78794.73
2019-03-22T10:37:23.334Z,78759.37
2019-03-22T10:39:53.058Z,78729.05
2019-03-22T10:42:23.079Z,78713.89
2019-03-22T10:44:53.172Z,78680.55
2019-03-22T10:47:24.399Z,78690.65
2019-03-22T10:49:54.428Z,78681.55
2019-03-22T10:52:24.154Z,78672.45
2019-03-22T10:54:53.918Z,78670.44
2019-03-22T10:57:23.620Z,78654.27
2019-03-22T10:59:53.364Z,78619.91
2019-03-22T11:02:23.781Z,78629.00
2019-03-22T11:04:53.477Z,78609.80
2019-03-22T11:07:23.202Z,78592.63
2019-03-22T11:09:53.300Z,78571.41
2019-03-22T11:12:23.076Z,78561.30
2019-03-22T11:14:52.800Z,78547.15
2019-03-22T11:17:22.497Z,78546.14
2019-03-22T11:19:52.188Z,78547.15
2019-03-22T11:22:22.757Z,78535.02
2019-03-22T11:24:52.463Z,78513.80
2019-03-22T11:27:22.188Z,78506.73
2019-03-22T11:29:51.924Z,78473.38
2019-03-22T11:32:21.981Z,78460.25
2019-03-22T11:34:52.409Z,78453.17
2019-03-22T11:37:22.160Z,78440.03
2019-03-22T11:39:51.935Z,78437.00
2019-03-22T11:42:21.620Z,78405.68
2019-03-22T11:44:51.376Z,78390.52
2019-03-22T11:47:21.479Z,78379.41
2019-03-22T11:49:51.434Z,78375.36
2019-03-22T11:52:21.168Z,78368.30
2019-03-22T11:54:50.888Z,78370.31
2019-03-22T11:57:21.452Z,78353.13
2019-03-22T11:59:51.191Z,78342.02
2019-03-22T12:02:22.570Z,78335.95
2019-03-22T12:04:52.508Z,78301.60
2019-03-22T12:07:22.555Z,78281.39
2019-03-22T12:09:52.255Z,78274.31
2019-03-22T12:12:21.984Z,78264.22
2019-03-22T12:14:51.711Z,78251.08
2019-03-22T12:17:21.801Z,78247.03
2019-03-22T12:19:51.887Z,78251.08
2019-03-22T12:22:22.138Z,78247.03
2019-03-22T12:24:51.884Z,78259.16
2019-03-22T12:27:21.697Z,78249.06
2019-03-22T12:29:53.426Z,78217.73
2019-03-22T12:32:31.934Z,78219.75
2019-03-22T12:34:55.097Z,78230.87
2019-03-22T12:37:24.894Z,78224.80
2019-03-22T12:39:54.588Z,78220.77
2019-03-22T12:42:24.571Z,78203.59
2019-03-22T12:44:54.683Z,78169.23
2019-03-22T12:47:24.749Z,78171.25
2019-03-22T12:49:54.575Z,78172.27
2019-03-22T12:52:24.332Z,78159.13
2019-03-22T12:54:54.100Z,78134.88
2019-03-22T12:57:23.891Z,78112.65
2019-03-22T12:59:54.000Z,78108.61
2019-03-22T13:02:23.717Z,78112.65
2019-03-22T13:04:54.580Z,78112.65
2019-03-22T13:07:24.729Z,78110.63
2019-03-22T13:09:54.847Z,78102.55
2019-03-22T13:12:24.658Z,78078.30
2019-03-22T13:14:56.670Z,78071.22
2019-03-22T13:17:26.646Z,78056.06
2019-03-22T13:19:56.562Z,78084.36
2019-03-22T13:22:27.255Z,78063.14
2019-03-22T13:24:58.601Z,78056.06
2019-03-22T13:27:28.896Z,78039.90
2019-03-22T13:29:59.123Z,78042.93
2019-03-22T13:32:28.930Z,78052.02
2019-03-22T13:34:59.538Z,78035.86
2019-03-22T13:37:29.631Z,78023.73
2019-03-22T13:39:59.290Z,78015.65
2019-03-22T13:42:29.084Z,78014.64
2019-03-22T13:44:59.271Z,77988.37
2019-03-22T13:47:29.421Z,77968.16
2019-03-22T13:49:59.112Z,77971.19
2019-03-22T13:52:29.016Z,77973.21
2019-03-22T13:54:58.763Z,77968.16
2019-03-22T13:57:28.784Z,77966.14
2019-03-22T13:59:58.658Z,77971.19
2019-03-22T14:02:28.357Z,77977.25
2019-03-22T14:04:58.107Z,77981.30
2019-03-22T14:07:27.804Z,77974.22
2019-03-22T14:09:57.538Z,77967.15
2019-03-22T14:12:36.636Z,77964.12
2019-03-22T14:14:58.813Z,77943.91
2019-03-22T14:17:28.524Z,77939.88
2019-03-22T14:19:58.562Z,77937.84
2019-03-22T14:22:28.414Z,77929.77
2019-03-22T14:24:58.613Z,77939.88
2019-03-22T14:27:28.318Z,77925.73
2019-03-22T14:29:58.207Z,77920.67
2019-03-22T14:32:28.631Z,77931.79
2019-03-22T14:34:58.342Z,77943.91
2019-03-22T14:37:28.129Z,77940.88
2019-03-22T14:39:57.847Z,77930.78
2019-03-22T14:42:29.553Z,77932.80
2019-03-22T14:45:00.347Z,77939.88
2019-03-22T14:47:30.807Z,77947.95
2019-03-22T14:50:01.519Z,77940.88
2019-03-22T14:52:31.288Z,77925.73
2019-03-22T14:55:01.593Z,77900.47
2019-03-22T14:57:31.349Z,77900.47
2019-03-22T15:00:03.063Z,77896.42
2019-03-22T15:02:32.757Z,77877.23
2019-03-22T15:05:02.471Z,77888.34
2019-03-22T15:07:32.325Z,77890.36
2019-03-22T15:10:02.053Z,77885.31
2019-03-22T15:12:32.198Z,77896.42
2019-03-22T15:15:23.609Z,77897.44
2019-03-22T15:18:15.363Z,77896.42
2019-03-22T15:21:02.903Z,77906.53
2019-03-22T15:24:03.122Z,77920.67
2019-03-22T15:26:39.433Z,77921.69
2019-03-22T15:29:38.431Z,77910.57
2019-03-22T15:32:26.076Z,77905.52
2019-03-22T15:35:13.412Z,77905.52
2019-03-22T15:38:02.091Z,77890.36
2019-03-22T15:40:32.195Z,77892.38
2019-03-22T15:43:01.876Z,77887.33
2019-03-22T15:45:31.636Z,77876.22
2019-03-22T15:48:01.360Z,77886.32
2019-03-22T15:50:31.052Z,77892.38
2019-03-22T15:53:00.854Z,77892.38
2019-03-22T15:55:30.874Z,77893.39
2019-03-22T15:58:01.563Z,77887.33
2019-03-22T16:00:31.380Z,77883.29
2019-03-22T16:03:01.111Z,77904.51
2019-03-22T16:05:30.786Z,77914.61
2019-03-22T16:08:01.272Z,77917.64
2019-03-22T16:10:31.328Z,77902.48
2019-03-22T16:13:01.316Z,77910.57
2019-03-22T16:15:31.000Z,77918.66
2019-03-22T16:18:00.712Z,77917.64
2019-03-22T16:20:30.610Z,77920.67
2019-03-22T16:23:00.650Z,77917.64
2019-03-22T16:25:30.436Z,77924.72
2019-03-22T16:28:00.211Z,77921.69
2019-03-22T16:30:29.878Z,77932.80
2019-03-22T16:32:59.919Z,77930.78
2019-03-22T16:35:29.917Z,77925.73
2019-03-22T16:37:59.630Z,77947.95
2019-03-22T16:40:29.396Z,77940.88
2019-03-22T16:42:59.082Z,77944.92
2019-03-22T16:45:54.076Z,77955.02
2019-03-22T16:48:23.803Z,77971.19
2019-03-22T16:50:54.024Z,77983.31
2019-03-22T16:53:23.689Z,77981.30
2019-03-22T16:55:53.429Z,77990.39
2019-03-22T16:58:23.558Z,77998.47
2019-03-22T17:00:53.542Z,78001.50
2019-03-22T17:03:23.287Z,78012.62
2019-03-22T17:05:53.327Z,78027.77
2019-03-22T17:08:23.055Z,78051.02
2019-03-22T17:10:52.757Z,78072.23
2019-03-22T17:13:22.472Z,78089.41
2019-03-22T17:15:52.551Z,78098.50
2019-03-22T17:18:22.363Z,78097.49
2019-03-22T17:20:52.604Z,78112.65
2019-03-22T17:23:22.612Z,78147.00
2019-03-22T17:25:52.508Z,78154.08
2019-03-22T17:28:22.414Z,78170.24
2019-03-22T17:30:52.104Z,78199.55
2019-03-22T17:33:21.815Z,78223.80
2019-03-22T17:35:52.306Z,78256.13
2019-03-22T17:38:22.027Z,78271.29
2019-03-22T17:40:52.029Z,78296.55
2019-03-22T17:43:21.777Z,78329.89
2019-03-22T17:45:52.170Z,78357.17
2019-03-22T17:48:21.929Z,78349.09
2019-03-22T17:50:51.604Z,78340.00
2019-03-22T17:53:22.212Z,78367.28
2019-03-22T17:55:52.241Z,78407.70
2019-03-22T17:58:22.121Z,78424.88
2019-03-22T18:00:52.281Z,78424.88
2019-03-22T18:03:22.325Z,78424.88
2019-03-22T18:05:52.023Z,78431.95
2019-03-22T18:08:22.030Z,78447.11
2019-03-22T18:10:51.707Z,78476.41
2019-03-22T18:13:21.727Z,78520.88
2019-03-22T18:15:51.538Z,78529.97
2019-03-22T18:18:21.550Z,78533.00
2019-03-22T18:20:51.630Z,78567.36
2019-03-22T18:23:21.621Z,78591.61
2019-03-22T18:25:51.562Z,78571.41
2019-03-22T18:28:21.559Z,78568.38
2019-03-22T18:30:51.680Z,78586.56
2019-03-22T18:33:21.816Z,78614.86
2019-03-22T18:35:51.556Z,78645.17
2019-03-22T18:38:21.809Z,78644.16
2019-03-22T18:40:51.875Z,78646.19
2019-03-22T18:43:21.999Z,78659.32
2019-03-22T18:45:51.744Z,78680.55
2019-03-22T18:48:22.931Z,78691.66
2019-03-22T18:50:56.627Z,78671.45
2019-03-22T18:53:24.428Z,78679.53
2019-03-22T18:55:54.165Z,78706.81
2019-03-22T18:58:24.013Z,78705.80
2019-03-22T19:00:53.783Z,78724.00
2019-03-22T19:03:23.907Z,78729.05
2019-03-22T19:05:53.966Z,78736.13
2019-03-22T19:08:24.281Z,78748.25
2019-03-22T19:10:54.216Z,78762.40
2019-03-22T19:13:30.665Z,78749.27
2019-03-22T19:15:55.460Z,78752.30
2019-03-22T19:18:25.611Z,78740.16
2019-03-22T19:20:55.767Z,78758.36
2019-03-22T19:23:25.546Z,78754.31
2019-03-22T19:25:55.250Z,78744.20
2019-03-22T19:28:25.694Z,78751.28
2019-03-22T19:30:55.448Z,78779.58
2019-03-22T19:33:25.219Z,78775.53
2019-03-22T19:35:56.083Z,78764.42
2019-03-22T19:38:26.152Z,78758.36
2019-03-22T19:40:56.253Z,78776.55
2019-03-22T19:43:26.403Z,78795.75
2019-03-22T19:45:56.287Z,78805.86
2019-03-22T19:48:27.552Z,78815.95
2019-03-22T19:50:57.696Z,78849.31
2019-03-22T19:53:27.526Z,78864.47
2019-03-22T19:55:57.670Z,78872.55
2019-03-22T19:58:27.356Z,78854.36
2019-03-22T20:00:57.106Z,78862.45
2019-03-22T20:03:27.074Z,78849.31
2019-03-22T20:05:56.854Z,78851.33
2019-03-22T20:08:26.510Z,78868.52
2019-03-22T20:10:56.979Z,78879.63
2019-03-22T20:13:26.689Z,78867.50
2019-03-22T20:15:56.469Z,78866.48
2019-03-22T20:18:26.217Z,78881.65
2019-03-22T20:20:57.201Z,78895.80
2019-03-22T20:23:26.910Z,78896.81
2019-03-22T20:25:56.602Z,78894.78
2019-03-22T20:28:26.317Z,78904.89
2019-03-22T20:30:56.065Z,78916.02
2019-03-22T20:33:25.824Z,78925.11
2019-03-22T20:35:55.890Z,78928.14
2019-03-22T20:38:25.773Z,78927.13
2019-03-22T20:40:55.478Z,78912.98
2019-03-22T20:43:25.193Z,78923.08
2019-03-22T20:45:55.257Z,78921.06
2019-03-22T20:48:24.954Z,78920.05
2019-03-22T20:50:54.981Z,78926.12
2019-03-22T20:53:24.796Z,78913.98
2019-03-22T20:55:54.507Z,78902.88
2019-03-22T20:58:24.273Z,78911.97
2019-03-22T21:00:54.237Z,78929.15
2019-03-22T21:03:24.012Z,78921.06
2019-03-22T21:05:53.684Z,78933.19
2019-03-22T21:08:23.466Z,78884.68
2019-03-22T21:10:53.215Z,78871.55
2019-03-22T21:13:22.977Z,78862.45
2019-03-22T21:15:52.661Z,78855.38
2019-03-22T21:18:22.762Z,78838.19
2019-03-22T21:20:52.878Z,78850.32
2019-03-22T21:23:22.637Z,78830.11
2019-03-22T21:25:52.665Z,78843.25
2019-03-22T21:28:22.436Z,78826.06
2019-03-22T21:30:52.155Z,78801.81
2019-03-22T21:33:22.227Z,78778.56
2019-03-22T21:35:51.928Z,78795.75
2019-03-22T21:38:24.066Z,78786.66
2019-03-22T21:40:54.389Z,78797.77
2019-03-22T21:43:24.116Z,78803.83
2019-03-22T21:45:54.019Z,78807.88
2019-03-22T21:48:23.769Z,78811.92
2019-03-22T21:50:53.504Z,78809.89
2019-03-22T21:53:23.505Z,78804.84
2019-03-22T21:55:54.457Z,78801.81
2019-03-22T21:58:24.554Z,78810.91
2019-03-22T22:00:54.265Z,78815.95
2019-03-22T22:03:23.961Z,78834.15
2019-03-22T22:05:53.699Z,78833.14
2019-03-22T22:08:23.456Z,78851.33
2019-03-22T22:10:59.745Z,78863.45
2019-03-22T22:13:24.686Z,78868.52
2019-03-22T22:15:54.461Z,78870.53
2019-03-22T22:18:24.624Z,78869.52
2019-03-22T22:20:54.376Z,78868.52
2019-03-22T22:23:24.173Z,78863.45
2019-03-22T22:25:54.008Z,78869.52
2019-03-22T22:28:24.041Z,78903.88
2019-03-22T22:30:53.844Z,78913.98
2019-03-22T22:33:23.844Z,78920.05
2019-03-22T22:35:58.628Z,78921.06
2019-03-22T22:38:25.082Z,78945.31
2019-03-22T22:40:54.743Z,78945.31
2019-03-22T22:43:25.180Z,78951.38
2019-03-22T22:45:54.916Z,78970.58
2019-03-22T22:48:25.035Z,78992.81
2019-03-22T22:50:55.027Z,79010.00
2019-03-22T22:53:24.818Z,79026.17
2019-03-22T22:55:54.854Z,79056.48
2019-03-22T22:58:24.593Z,79107.02
2019-03-22T23:00:54.416Z,79152.50
2019-03-22T23:03:24.140Z,79202.02
2019-03-22T23:05:54.594Z,79268.73
2019-03-22T23:08:24.319Z,79304.11
2019-03-22T23:10:54.373Z,79329.38
2019-03-22T23:13:24.076Z,79321.29
2019-03-22T23:15:54.617Z,79331.39
2019-03-22T23:18:24.599Z,79337.45
2019-03-22T23:20:54.333Z,79344.53
2019-03-22T23:23:24.093Z,79339.48
2019-03-22T23:25:54.469Z,79332.41
2019-03-22T23:28:24.612Z,79332.41
2019-03-22T23:30:54.746Z,79336.45
2019-03-22T23:33:24.823Z,79315.23
2019-03-22T23:35:54.539Z,79311.18
2019-03-22T23:38:24.963Z,79341.50
2019-03-22T23:40:55.048Z,79356.66
2019-03-22T23:43:25.148Z,79370.81
2019-03-22T23:45:55.150Z,79349.59
2019-03-22T23:48:25.995Z,79355.66
2019-03-22T23:50:56.121Z,79353.63
2019-03-22T23:53:26.604Z,79351.61
2019-03-22T23:55:56.339Z,79358.69
2019-03-22T23:58:26.128Z,79362.73
